createdAt,value
2019-05-22T00:00:27.632Z,91.25
2019-05-22T00:02:58.622Z,91.18
2019-05-22T00:05:32.215Z,90.99
2019-05-22T00:08:02.551Z,91.03
2019-05-22T00:10:33.373Z,91.06
2019-05-22T00:13:04.028Z,91.06
2019-05-22T00:15:33.477Z,91.09
2019-05-22T00:18:03.095Z,91.23
2019-05-22T00:20:31.752Z,91.19
2019-05-22T00:23:04.607Z,91.08
2019-05-22T00:25:35.911Z,91.17
2019-05-22T00:28:06.706Z,91.19
2019-05-22T00:30:37.369Z,91.07
2019-05-22T00:33:07.737Z,91.17
2019-05-22T00:35:38.042Z,90.95
2019-05-22T00:38:08.850Z,90.97
2019-05-22T00:40:46.824Z,90.97
2019-05-22T00:43:21.064Z,91.04
2019-05-22T00:45:52.255Z,91.08
2019-05-22T00:48:22.701Z,91.20
2019-05-22T00:51:04.505Z,91.31
2019-05-22T00:53:39.183Z,91.22
2019-05-22T00:56:13.538Z,91.34
2019-05-22T00:58:44.282Z,91.21
2019-05-22T01:01:23.921Z,91.37
2019-05-22T01:03:54.106Z,91.26
2019-05-22T01:06:24.312Z,91.33
2019-05-22T01:08:54.846Z,91.34
2019-05-22T01:11:25.551Z,91.34
2019-05-22T01:13:54.673Z,91.25
2019-05-22T01:16:25.155Z,91.25
2019-05-22T01:18:53.725Z,91.37
2019-05-22T01:21:25.066Z,91.21
2019-05-22T01:23:55.552Z,91.24
2019-05-22T01:26:26.305Z,91.27
2019-05-22T01:28:56.775Z,91.11
2019-05-22T01:31:33.196Z,91.20
2019-05-22T01:34:05.877Z,91.17
2019-05-22T01:36:36.367Z,91.18
2019-05-22T01:39:20.940Z,91.35
2019-05-22T01:41:51.676Z,91.35
2019-05-22T01:44:21.161Z,91.33
2019-05-22T01:46:51.765Z,91.28
2019-05-22T01:49:21.937Z,91.24
2019-05-22T01:51:51.341Z,91.27
2019-05-22T01:54:22.038Z,91.21
2019-05-22T01:56:51.625Z,91.24
2019-05-22T01:59:22.762Z,91.37
2019-05-22T02:01:52.762Z,91.22
2019-05-22T02:04:22.034Z,91.27
2019-05-22T02:06:51.236Z,91.28
2019-05-22T02:09:31.587Z,91.26
2019-05-22T02:12:16.628Z,91.26
2019-05-22T02:14:50.030Z,91.39
2019-05-22T02:17:22.598Z,91.44
2019-05-22T02:19:52.099Z,91.47
2019-05-22T02:22:22.135Z,91.56
2019-05-22T02:24:52.072Z,91.63
2019-05-22T02:27:21.394Z,91.64
2019-05-22T02:29:52.367Z,91.51
2019-05-22T02:32:23.543Z,91.48
2019-05-22T02:34:52.181Z,91.61
2019-05-22T02:37:22.292Z,91.61
2019-05-22T02:39:53.263Z,91.78
2019-05-22T02:42:26.110Z,91.71
2019-05-22T02:44:55.660Z,91.71
2019-05-22T02:47:25.635Z,91.59
2019-05-22T02:49:56.087Z,91.58
2019-05-22T02:52:26.290Z,91.57
2019-05-22T02:54:55.625Z,91.65
2019-05-22T02:57:25.109Z,91.66
2019-05-22T02:59:53.602Z,91.63
2019-05-22T03:02:24.420Z,91.65
2019-05-22T03:05:00.432Z,91.71
2019-05-22T03:07:31.828Z,91.66
2019-05-22T03:10:03.778Z,91.77
2019-05-22T03:12:34.670Z,91.77
2019-05-22T03:15:05.659Z,91.85
2019-05-22T03:17:35.235Z,91.79
2019-05-22T03:20:17.387Z,91.66
2019-05-22T03:23:01.216Z,91.67
2019-05-22T03:25:32.641Z,91.84
2019-05-22T03:28:02.960Z,91.82
2019-05-22T03:30:34.759Z,91.81
2019-05-22T03:33:06.441Z,91.71
2019-05-22T03:35:38.681Z,91.75
2019-05-22T03:38:08.060Z,91.72
2019-05-22T03:40:38.094Z,91.83
2019-05-22T03:43:15.869Z,92.01
2019-05-22T03:45:45.977Z,91.86
2019-05-22T03:48:15.054Z,91.96
2019-05-22T03:50:44.337Z,91.99
2019-05-22T03:53:19.018Z,91.95
2019-05-22T03:55:49.242Z,91.92
2019-05-22T03:58:18.735Z,91.88
2019-05-22T04:00:49.733Z,91.90
2019-05-22T04:03:19.749Z,91.94
2019-05-22T04:05:50.250Z,91.86
2019-05-22T04:08:19.954Z,91.87
2019-05-22T04:10:57.098Z,91.90
2019-05-22T04:13:26.490Z,91.92
2019-05-22T04:15:55.800Z,91.87
2019-05-22T04:18:26.305Z,91.84
2019-05-22T04:20:58.083Z,91.88
2019-05-22T04:23:26.721Z,91.92
2019-05-22T04:25:57.900Z,91.86
2019-05-22T04:28:30.241Z,91.85
2019-05-22T04:31:00.254Z,91.82
2019-05-22T04:33:31.044Z,91.78
2019-05-22T04:36:01.833Z,91.76
2019-05-22T04:38:31.528Z,91.79
2019-05-22T04:41:02.557Z,91.78
2019-05-22T04:43:34.178Z,91.71
2019-05-22T04:46:05.443Z,91.62
2019-05-22T04:48:35.229Z,91.54
2019-05-22T04:51:22.827Z,91.50
2019-05-22T04:53:51.497Z,91.52
2019-05-22T04:56:20.902Z,91.53
2019-05-22T04:58:49.539Z,91.42
2019-05-22T05:01:21.511Z,91.45
2019-05-22T05:03:51.219Z,91.50
2019-05-22T05:06:21.868Z,91.47
2019-05-22T05:08:52.533Z,91.50
2019-05-22T05:11:21.862Z,91.35
2019-05-22T05:13:50.455Z,91.39
2019-05-22T05:16:19.276Z,91.48
2019-05-22T05:18:48.600Z,91.53
2019-05-22T05:21:17.212Z,91.55
2019-05-22T05:23:46.513Z,91.54
2019-05-22T05:26:15.515Z,91.33
2019-05-22T05:28:45.319Z,91.29
2019-05-22T05:31:14.724Z,91.33
2019-05-22T05:34:02.547Z,91.14
2019-05-22T05:36:33.313Z,91.00
2019-05-22T05:39:05.896Z,91.00
2019-05-22T05:41:34.360Z,90.76
2019-05-22T05:44:04.735Z,90.88
2019-05-22T05:46:33.338Z,90.79
2019-05-22T05:49:02.776Z,90.68
2019-05-22T05:51:33.982Z,90.68
2019-05-22T05:54:06.647Z,90.69
2019-05-22T05:56:37.481Z,90.80
2019-05-22T05:59:10.715Z,90.85
2019-05-22T06:01:41.157Z,90.74
2019-05-22T06:04:10.230Z,90.66
2019-05-22T06:06:41.743Z,90.65
2019-05-22T06:09:17.175Z,90.57
2019-05-22T06:11:49.059Z,90.60
2019-05-22T06:14:20.945Z,90.61
2019-05-22T06:16:54.110Z,90.66
2019-05-22T06:19:23.961Z,90.62
2019-05-22T06:21:53.474Z,90.71
2019-05-22T06:24:35.022Z,90.64
2019-05-22T06:27:15.577Z,90.72
2019-05-22T06:29:57.905Z,90.66
2019-05-22T06:32:52.456Z,90.72
2019-05-22T06:35:21.761Z,90.73
2019-05-22T06:37:59.307Z,90.80
2019-05-22T06:40:28.315Z,90.73
2019-05-22T06:43:21.888Z,90.57
2019-05-22T06:45:50.612Z,90.54
2019-05-22T06:48:19.525Z,90.50
2019-05-22T06:50:49.397Z,90.43
2019-05-22T06:53:18.685Z,90.46
2019-05-22T06:55:47.495Z,90.36
2019-05-22T06:58:16.973Z,90.34
2019-05-22T07:00:46.374Z,90.31
2019-05-22T07:03:15.583Z,90.35
2019-05-22T07:05:45.359Z,90.36
2019-05-22T07:08:14.849Z,90.21
2019-05-22T07:10:44.726Z,90.31
2019-05-22T07:13:14.302Z,90.29
2019-05-22T07:15:44.317Z,90.39
2019-05-22T07:18:15.355Z,90.41
2019-05-22T07:20:47.511Z,90.24
2019-05-22T07:23:25.099Z,90.06
2019-05-22T07:25:54.168Z,90.07
2019-05-22T07:28:24.325Z,90.08
2019-05-22T07:30:53.886Z,89.93
2019-05-22T07:33:23.798Z,90.01
2019-05-22T07:36:08.576Z,89.99
2019-05-22T07:38:23.616Z,89.86
2019-05-22T07:40:53.036Z,90.12
2019-05-22T07:43:22.216Z,90.16
2019-05-22T07:45:52.683Z,90.21
2019-05-22T07:48:24.497Z,90.10
2019-05-22T07:50:56.303Z,90.16
2019-05-22T07:53:26.900Z,90.11
2019-05-22T07:55:57.923Z,90.04
2019-05-22T07:58:29.848Z,90.04
2019-05-22T08:01:00.766Z,90.03
2019-05-22T08:03:32.044Z,89.91
2019-05-22T08:06:03.093Z,89.72
2019-05-22T08:08:33.264Z,89.50
2019-05-22T08:11:02.361Z,89.69
2019-05-22T08:13:32.536Z,89.68
2019-05-22T08:16:02.685Z,89.99
2019-05-22T08:18:33.348Z,90.15
2019-05-22T08:21:03.084Z,90.17
2019-05-22T08:23:32.598Z,90.44
2019-05-22T08:26:01.215Z,90.43
2019-05-22T08:28:32.008Z,90.51
2019-05-22T08:31:01.674Z,90.48
2019-05-22T08:33:31.770Z,90.58
2019-05-22T08:36:04.896Z,90.68
2019-05-22T08:38:35.379Z,90.74
2019-05-22T08:41:06.981Z,90.86
2019-05-22T08:44:03.334Z,90.85
2019-05-22T08:46:08.430Z,90.69
2019-05-22T08:48:46.638Z,90.51
2019-05-22T08:51:10.512Z,90.29
2019-05-22T08:53:47.374Z,90.43
2019-05-22T08:56:11.220Z,90.20
2019-05-22T08:58:40.414Z,90.13
2019-05-22T09:01:10.979Z,90.29
2019-05-22T09:03:40.246Z,90.27
2019-05-22T09:06:09.489Z,90.23
2019-05-22T09:08:38.069Z,90.32
2019-05-22T09:11:07.250Z,90.34
2019-05-22T09:13:36.263Z,90.29
2019-05-22T09:16:05.576Z,90.15
2019-05-22T09:18:34.539Z,90.11
2019-05-22T09:21:03.689Z,90.10
2019-05-22T09:23:33.830Z,90.02
2019-05-22T09:26:03.647Z,89.92
2019-05-22T09:28:34.880Z,89.99
2019-05-22T09:31:03.544Z,90.04
2019-05-22T09:33:33.121Z,90.09
2019-05-22T09:36:02.169Z,90.22
2019-05-22T09:38:31.348Z,90.14
2019-05-22T09:41:00.932Z,90.17
2019-05-22T09:43:29.776Z,90.11
2019-05-22T09:45:58.307Z,90.24
2019-05-22T09:48:27.660Z,90.17
2019-05-22T09:50:56.966Z,89.93
2019-05-22T09:53:26.264Z,89.92
2019-05-22T09:55:55.252Z,89.68
2019-05-22T09:58:24.563Z,89.59
2019-05-22T10:00:53.166Z,89.42
2019-05-22T10:03:22.485Z,89.27
2019-05-22T10:05:51.624Z,89.46
2019-05-22T10:08:21.066Z,89.38
2019-05-22T10:10:50.375Z,89.42
2019-05-22T10:13:19.380Z,89.40
2019-05-22T10:15:48.012Z,89.23
2019-05-22T10:18:17.023Z,89.15
2019-05-22T10:20:47.026Z,89.40
2019-05-22T10:23:16.545Z,89.49
2019-05-22T10:25:45.612Z,89.65
2019-05-22T10:28:15.502Z,89.76
2019-05-22T10:30:44.536Z,90.09
2019-05-22T10:33:13.158Z,90.12
2019-05-22T10:35:42.449Z,89.82
2019-05-22T10:38:11.625Z,89.74
2019-05-22T10:40:40.548Z,89.82
2019-05-22T10:43:09.873Z,89.83
2019-05-22T10:45:39.044Z,89.96
2019-05-22T10:48:08.095Z,90.36
2019-05-22T10:50:36.739Z,90.29
2019-05-22T10:53:05.698Z,90.21
2019-05-22T10:55:35.945Z,90.22
2019-05-22T10:58:05.601Z,90.06
2019-05-22T11:00:35.098Z,89.92
2019-05-22T11:03:04.065Z,89.60
2019-05-22T11:05:33.744Z,89.37
2019-05-22T11:08:02.722Z,89.28
2019-05-22T11:10:33.251Z,88.85
2019-05-22T11:13:02.565Z,88.30
2019-05-22T11:15:31.242Z,87.73
2019-05-22T11:18:00.023Z,87.49
2019-05-22T11:20:30.999Z,87.25
2019-05-22T11:23:00.067Z,86.39
2019-05-22T11:25:29.344Z,86.02
2019-05-22T11:27:58.741Z,86.25
2019-05-22T11:30:28.786Z,85.99
2019-05-22T11:32:58.292Z,85.95
2019-05-22T11:35:28.365Z,85.87
2019-05-22T11:37:57.109Z,85.79
2019-05-22T11:40:26.387Z,85.86
2019-05-22T11:42:55.664Z,85.80
2019-05-22T11:45:25.286Z,85.88
2019-05-22T11:47:54.629Z,86.09
2019-05-22T11:50:25.205Z,86.14
2019-05-22T11:52:54.076Z,86.37
2019-05-22T11:55:42.175Z,86.27
2019-05-22T11:57:53.776Z,86.58
2019-05-22T12:00:24.763Z,86.92
2019-05-22T12:02:55.880Z,87.11
2019-05-22T12:05:25.759Z,87.12
2019-05-22T12:07:54.779Z,87.33
2019-05-22T12:10:25.564Z,87.32
2019-05-22T12:12:56.198Z,87.29
2019-05-22T12:15:27.904Z,87.40
2019-05-22T12:17:57.031Z,87.49
2019-05-22T12:20:26.273Z,87.39
2019-05-22T12:22:55.644Z,87.32
2019-05-22T12:25:25.749Z,87.38
2019-05-22T12:27:55.122Z,87.39
2019-05-22T12:30:25.021Z,87.20
2019-05-22T12:32:53.767Z,87.46
2019-05-22T12:35:22.418Z,87.42
2019-05-22T12:37:51.651Z,87.43
2019-05-22T12:40:21.429Z,87.39
2019-05-22T12:42:51.948Z,87.64
2019-05-22T12:45:30.014Z,87.75
2019-05-22T12:47:59.904Z,87.85
2019-05-22T12:50:30.982Z,87.66
2019-05-22T12:53:04.123Z,87.74
2019-05-22T12:55:33.946Z,87.84
2019-05-22T12:58:03.605Z,87.77
2019-05-22T13:00:34.923Z,87.58
2019-05-22T13:03:06.025Z,87.66
2019-05-22T13:05:36.996Z,87.84
2019-05-22T13:08:07.077Z,87.98
2019-05-22T13:10:36.747Z,87.89
2019-05-22T13:13:06.053Z,87.79
2019-05-22T13:15:37.780Z,87.70
2019-05-22T13:18:08.296Z,87.49
2019-05-22T13:20:43.199Z,87.69
2019-05-22T13:23:15.855Z,87.88
2019-05-22T13:25:46.331Z,88.07
2019-05-22T13:28:17.174Z,88.33
2019-05-22T13:30:49.966Z,88.72
2019-05-22T13:33:22.305Z,88.52
2019-05-22T13:35:52.117Z,88.42
2019-05-22T13:38:21.137Z,88.46
2019-05-22T13:40:51.447Z,88.46
2019-05-22T13:43:20.469Z,88.56
2019-05-22T13:45:49.973Z,88.47
2019-05-22T13:48:18.581Z,88.52
2019-05-22T13:50:48.328Z,88.49
2019-05-22T13:53:19.401Z,88.43
2019-05-22T13:55:48.379Z,88.30
2019-05-22T13:58:20.565Z,88.34
2019-05-22T14:00:50.353Z,88.51
2019-05-22T14:03:20.837Z,88.57
2019-05-22T14:05:50.109Z,88.38
2019-05-22T14:08:19.488Z,88.24
2019-05-22T14:10:50.011Z,88.15
2019-05-22T14:13:19.348Z,88.12
2019-05-22T14:15:54.962Z,88.25
2019-05-22T14:18:19.708Z,88.38
2019-05-22T14:20:49.153Z,88.40
2019-05-22T14:23:18.045Z,88.46
2019-05-22T14:25:48.033Z,88.14
2019-05-22T14:28:17.219Z,88.23
2019-05-22T14:30:46.505Z,88.31
2019-05-22T14:33:16.380Z,88.41
2019-05-22T14:35:48.767Z,88.34
2019-05-22T14:38:16.590Z,88.24
2019-05-22T14:40:45.755Z,87.87
2019-05-22T14:43:14.567Z,87.56
2019-05-22T14:45:45.415Z,87.31
2019-05-22T14:48:15.594Z,87.10
2019-05-22T14:50:44.753Z,87.13
2019-05-22T14:53:16.011Z,87.16
2019-05-22T14:55:46.510Z,87.13
2019-05-22T14:58:16.231Z,87.17
2019-05-22T15:00:45.786Z,87.20
2019-05-22T15:03:14.494Z,86.87
2019-05-22T15:05:43.771Z,87.03
2019-05-22T15:08:12.487Z,87.07
2019-05-22T15:10:41.391Z,87.10
2019-05-22T15:13:11.106Z,87.08
2019-05-22T15:15:40.886Z,87.09
2019-05-22T15:18:11.212Z,87.15
2019-05-22T15:20:42.058Z,86.71
2019-05-22T15:23:11.521Z,86.86
2019-05-22T15:25:40.588Z,86.92
2019-05-22T15:28:09.950Z,87.09
2019-05-22T15:30:39.488Z,87.29
2019-05-22T15:33:09.520Z,87.65
2019-05-22T15:35:38.736Z,87.51
2019-05-22T15:38:11.023Z,87.56
2019-05-22T15:40:40.410Z,87.64
2019-05-22T15:43:12.093Z,87.65
2019-05-22T15:45:42.398Z,88.10
2019-05-22T15:48:17.675Z,87.80
2019-05-22T15:50:53.017Z,87.96
2019-05-22T15:53:24.105Z,88.09
2019-05-22T15:55:54.490Z,88.17
2019-05-22T15:58:25.446Z,88.17
2019-05-22T16:00:56.294Z,88.55
2019-05-22T16:03:28.357Z,88.73
2019-05-22T16:05:58.340Z,88.57
2019-05-22T16:08:29.985Z,88.71
2019-05-22T16:11:00.808Z,88.75
2019-05-22T16:13:33.232Z,88.87
2019-05-22T16:16:03.922Z,88.96
2019-05-22T16:18:38.567Z,88.84
2019-05-22T16:21:11.386Z,88.60
2019-05-22T16:23:40.889Z,88.65
2019-05-22T16:26:11.940Z,88.74
2019-05-22T16:28:42.569Z,88.83
2019-05-22T16:31:12.824Z,88.87
2019-05-22T16:33:43.819Z,89.11
2019-05-22T16:36:14.396Z,89.15
2019-05-22T16:38:44.490Z,89.27
2019-05-22T16:41:13.792Z,89.02
2019-05-22T16:43:49.417Z,88.99
2019-05-22T16:46:16.981Z,88.81
2019-05-22T16:48:48.817Z,88.83
2019-05-22T16:51:18.532Z,88.78
2019-05-22T16:53:56.332Z,88.92
2019-05-22T16:56:26.655Z,88.98
2019-05-22T16:58:56.048Z,89.08
2019-05-22T17:01:27.203Z,89.14
2019-05-22T17:03:58.631Z,89.37
2019-05-22T17:06:27.468Z,89.47
2019-05-22T17:08:59.262Z,89.62
2019-05-22T17:11:29.139Z,89.79
2019-05-22T17:14:01.507Z,89.86
2019-05-22T17:16:34.077Z,89.92
2019-05-22T17:19:25.258Z,90.01
2019-05-22T17:21:37.382Z,89.94
2019-05-22T17:24:08.565Z,89.94
2019-05-22T17:26:37.648Z,89.95
2019-05-22T17:29:07.197Z,89.79
2019-05-22T17:31:37.109Z,89.74
2019-05-22T17:34:08.433Z,89.83
2019-05-22T17:36:38.713Z,89.72
2019-05-22T17:39:11.416Z,89.84
2019-05-22T17:41:42.517Z,90.05
2019-05-22T17:44:13.426Z,89.89
2019-05-22T17:46:45.114Z,89.79
2019-05-22T17:49:14.161Z,89.77
2019-05-22T17:51:44.063Z,90.09
2019-05-22T17:54:12.986Z,90.24
2019-05-22T17:56:42.301Z,90.47
2019-05-22T17:59:10.913Z,90.65
2019-05-22T18:01:39.520Z,90.66
2019-05-22T18:04:08.357Z,90.68
2019-05-22T18:06:37.424Z,90.65
2019-05-22T18:09:09.102Z,90.73
2019-05-22T18:11:37.721Z,90.78
2019-05-22T18:14:07.730Z,90.79
2019-05-22T18:16:37.318Z,90.78
2019-05-22T18:19:07.888Z,90.77
2019-05-22T18:21:37.081Z,90.72
2019-05-22T18:24:07.080Z,90.77
2019-05-22T18:26:36.182Z,90.78
2019-05-22T18:29:05.733Z,90.74
2019-05-22T18:31:34.922Z,90.85
2019-05-22T18:34:04.985Z,90.84
2019-05-22T18:36:33.603Z,90.76
2019-05-22T18:39:02.138Z,90.78
2019-05-22T18:41:30.992Z,90.80
2019-05-22T18:44:00.752Z,90.77
2019-05-22T18:46:29.405Z,90.71
2019-05-22T18:48:58.028Z,90.80
2019-05-22T18:51:26.947Z,90.87
2019-05-22T18:53:55.761Z,90.98
2019-05-22T18:56:25.919Z,90.96
2019-05-22T18:58:55.135Z,90.99
2019-05-22T19:01:24.120Z,91.04
2019-05-22T19:03:52.696Z,91.10
2019-05-22T19:06:30.246Z,91.06
2019-05-22T19:08:52.543Z,91.07
2019-05-22T19:11:21.158Z,91.04
2019-05-22T19:13:49.881Z,91.04
2019-05-22T19:16:18.564Z,91.16
2019-05-22T19:18:47.179Z,91.21
2019-05-22T19:21:16.686Z,91.22
2019-05-22T19:23:45.157Z,91.15
2019-05-22T19:26:13.922Z,91.16
2019-05-22T19:28:44.449Z,91.26
2019-05-22T19:31:13.398Z,91.33
2019-05-22T19:33:44.119Z,91.32
2019-05-22T19:36:12.872Z,91.31
2019-05-22T19:38:41.827Z,91.25
2019-05-22T19:41:10.426Z,91.15
2019-05-22T19:43:39.711Z,91.10
2019-05-22T19:46:08.770Z,90.93
2019-05-22T19:48:37.452Z,90.82
2019-05-22T19:51:07.670Z,90.72
2019-05-22T19:53:36.510Z,90.64
2019-05-22T19:56:06.780Z,90.60
2019-05-22T19:58:36.773Z,90.46
2019-05-22T20:01:06.596Z,90.49
2019-05-22T20:03:35.428Z,90.47
2019-05-22T20:06:05.517Z,90.33
2019-05-22T20:08:36.765Z,90.31
2019-05-22T20:11:06.151Z,90.41
2019-05-22T20:13:35.392Z,90.37
2019-05-22T20:16:04.906Z,90.23
2019-05-22T20:18:35.934Z,90.22
2019-05-22T20:21:04.504Z,90.24
2019-05-22T20:23:36.584Z,90.27
2019-05-22T20:26:05.202Z,90.25
2019-05-22T20:28:35.095Z,90.21
2019-05-22T20:31:04.078Z,90.25
2019-05-22T20:33:33.057Z,90.22
2019-05-22T20:36:01.770Z,90.33
2019-05-22T20:38:31.338Z,90.42
2019-05-22T20:41:00.539Z,90.49
2019-05-22T20:43:31.251Z,90.50
2019-05-22T20:46:02.012Z,90.43
2019-05-22T20:48:30.631Z,90.46
2019-05-22T20:51:02.114Z,90.52
2019-05-22T20:53:33.021Z,90.49
2019-05-22T20:56:01.932Z,90.49
2019-05-22T20:58:32.434Z,90.54
2019-05-22T21:01:01.658Z,90.58
2019-05-22T21:03:31.650Z,90.65
2019-05-22T21:06:01.049Z,90.60
2019-05-22T21:08:30.999Z,90.67
2019-05-22T21:11:01.725Z,90.68
2019-05-22T21:13:31.972Z,90.79
2019-05-22T21:16:02.334Z,90.70
2019-05-22T21:18:45.113Z,90.72
2019-05-22T21:21:14.090Z,90.82
2019-05-22T21:23:44.167Z,90.89
2019-05-22T21:26:13.446Z,90.76
2019-05-22T21:28:43.887Z,90.72
2019-05-22T21:31:14.566Z,90.79
2019-05-22T21:33:44.453Z,90.76
2019-05-22T21:36:15.845Z,90.64
2019-05-22T21:38:45.037Z,90.53
2019-05-22T21:41:14.250Z,90.49
2019-05-22T21:43:43.446Z,90.45
2019-05-22T21:46:12.455Z,90.59
2019-05-22T21:48:41.735Z,90.56
2019-05-22T21:51:10.748Z,90.54
2019-05-22T21:53:40.032Z,90.62
2019-05-22T21:56:11.940Z,90.54
2019-05-22T21:58:43.611Z,90.62
2019-05-22T22:01:14.851Z,90.60
2019-05-22T22:03:54.394Z,90.61
2019-05-22T22:06:23.265Z,90.66
2019-05-22T22:08:52.782Z,90.68
2019-05-22T22:11:24.455Z,90.68
2019-05-22T22:13:55.409Z,90.72
2019-05-22T22:16:24.331Z,90.66
2019-05-22T22:18:53.582Z,90.70
2019-05-22T22:21:23.264Z,90.60
2019-05-22T22:23:53.733Z,90.64
2019-05-22T22:26:25.761Z,90.65
2019-05-22T22:28:53.563Z,90.60
2019-05-22T22:31:23.814Z,90.72
2019-05-22T22:33:55.531Z,90.74
2019-05-22T22:36:24.810Z,90.62
2019-05-22T22:38:54.268Z,90.69
2019-05-22T22:41:23.488Z,90.66
2019-05-22T22:43:52.812Z,90.68
2019-05-22T22:46:31.724Z,90.73
2019-05-22T22:49:02.467Z,90.72
2019-05-22T22:51:32.046Z,90.71
2019-05-22T22:54:04.034Z,90.73
2019-05-22T22:56:32.892Z,90.72
2019-05-22T22:59:03.596Z,90.71
2019-05-22T23:01:34.094Z,90.70
2019-05-22T23:04:05.603Z,90.65
2019-05-22T23:06:36.224Z,90.88
2019-05-22T23:09:07.292Z,90.88
2019-05-22T23:11:39.022Z,90.97
2019-05-22T23:14:08.264Z,91.10
2019-05-22T23:16:37.656Z,91.13
2019-05-22T23:19:16.909Z,90.97
2019-05-22T23:21:45.542Z,90.96
2019-05-22T23:24:14.508Z,90.89
2019-05-22T23:26:43.685Z,90.82
2019-05-22T23:29:13.048Z,90.97
2019-05-22T23:31:42.282Z,90.98
2019-05-22T23:34:11.634Z,91.03
2019-05-22T23:36:40.701Z,91.10
2019-05-22T23:39:15.417Z,91.15
2019-05-22T23:41:46.869Z,91.07
2019-05-22T23:44:18.548Z,91.04
2019-05-22T23:46:47.922Z,91.09
2019-05-22T23:49:17.220Z,91.18
2019-05-22T23:51:46.640Z,91.05
2019-05-22T23:54:17.320Z,91.08
2019-05-22T23:56:45.925Z,91.36
2019-05-22T23:59:17.563Z,91.39
